sensor_id;sensor_type;location;lat;lon;timestamp;pressure;altitude;pressure_sealevel;temperature;humidity
73679;BME280;61978;52.742;16.962;2022-07-04T00:00:18;100790.16;;;23.84;70.64
73679;BME280;61978;52.742;16.962;2022-07-04T00:02:47;100790.42;;;23.83;70.52
73679;BME280;61978;52.742;16.962;2022-07-04T00:05:15;100789.87;;;23.83;70.38
73679;BME280;61978;52.742;16.962;2022-07-04T00:07:45;100792.08;;;23.81;70.22
73679;BME280;61978;52.742;16.962;2022-07-04T00:10:16;100794.83;;;23.81;70.13
73679;BME280;61978;52.742;16.962;2022-07-04T00:12:43;100789.59;;;23.79;69.97
73679;BME280;61978;52.742;16.962;2022-07-04T00:15:11;100796.45;;;23.79;69.92
73679;BME280;61978;52.742;16.962;2022-07-04T00:17:39;100803.86;;;23.79;69.82
73679;BME280;61978;52.742;16.962;2022-07-04T00:20:06;100794.25;;;23.79;69.79
73679;BME280;61978;52.742;16.962;2022-07-04T00:22:34;100796.17;;;23.78;69.79
73679;BME280;61978;52.742;16.962;2022-07-04T00:25:00;100792.63;;;23.78;69.72
73679;BME280;61978;52.742;16.962;2022-07-04T00:27:28;100790.97;;;23.77;69.69
73679;BME280;61978;52.742;16.962;2022-07-04T00:29:56;100781.09;;;23.76;69.68
73679;BME280;61978;52.742;16.962;2022-07-04T00:32:23;100775.60;;;23.76;69.69
73679;BME280;61978;52.742;16.962;2022-07-04T00:34:51;100775.34;;;23.75;69.67
73679;BME280;61978;52.742;16.962;2022-07-04T00:37:18;100772.31;;;23.74;69.66
73679;BME280;61978;52.742;16.962;2022-07-04T00:39:45;100775.34;;;23.75;69.62
73679;BME280;61978;52.742;16.962;2022-07-04T00:42:12;100774.78;;;23.73;69.53
73679;BME280;61978;52.742;16.962;2022-07-04T00:44:39;100772.86;;;23.73;69.45
73679;BME280;61978;52.742;16.962;2022-07-04T00:47:08;100767.66;;;23.72;69.40
73679;BME280;61978;52.742;16.962;2022-07-04T00:49:36;100773.98;;;23.72;69.31
73679;BME280;61978;52.742;16.962;2022-07-04T00:52:04;100766.30;;;23.72;69.27
73679;BME280;61978;52.742;16.962;2022-07-04T00:54:32;100761.35;;;23.71;69.25
73679;BME280;61978;52.742;16.962;2022-07-04T00:57:00;100761.35;;;23.71;69.12
73679;BME280;61978;52.742;16.962;2022-07-04T00:59:28;100747.90;;;23.70;69.02
73679;BME280;61978;52.742;16.962;2022-07-04T01:01:55;100754.50;;;23.69;68.99
73679;BME280;61978;52.742;16.962;2022-07-04T01:04:23;100749.56;;;23.68;68.89
73679;BME280;61978;52.742;16.962;2022-07-04T01:06:52;100754.22;;;23.68;68.85
73679;BME280;61978;52.742;16.962;2022-07-04T01:09:19;100755.05;;;23.68;68.87
73679;BME280;61978;52.742;16.962;2022-07-04T01:11:48;100756.95;;;23.68;68.84
73679;BME280;61978;52.742;16.962;2022-07-04T01:14:15;100755.30;;;23.67;68.86
73679;BME280;61978;52.742;16.962;2022-07-04T01:16:42;100749.81;;;23.67;68.91
73679;BME280;61978;52.742;16.962;2022-07-04T01:19:08;100747.36;;;23.65;68.92
73679;BME280;61978;52.742;16.962;2022-07-04T01:21:36;100748.19;;;23.66;68.86
73679;BME280;61978;52.742;16.962;2022-07-04T01:24:04;100750.94;;;23.66;68.80
73679;BME280;61978;52.742;16.962;2022-07-04T01:26:31;100747.91;;;23.65;68.73
73679;BME280;61978;52.742;16.962;2022-07-04T01:28:57;100745.16;;;23.65;68.64
73679;BME280;61978;52.742;16.962;2022-07-04T01:31:24;100744.88;;;23.64;68.62
73679;BME280;61978;52.742;16.962;2022-07-04T01:33:52;100747.37;;;23.63;68.51
73679;BME280;61978;52.742;16.962;2022-07-04T01:36:19;100747.08;;;23.62;68.45
73679;BME280;61978;52.742;16.962;2022-07-04T01:38:46;100742.97;;;23.62;68.34
73679;BME280;61978;52.742;16.962;2022-07-04T01:41:14;100736.11;;;23.62;68.26
73679;BME280;61978;52.742;16.962;2022-07-04T01:43:40;100735.03;;;23.60;68.17
73679;BME280;61978;52.742;16.962;2022-07-04T01:46:10;100735.57;;;23.60;68.12
73679;BME280;61978;52.742;16.962;2022-07-04T01:48:37;100735.83;;;23.61;68.08
73679;BME280;61978;52.742;16.962;2022-07-04T01:51:04;100734.20;;;23.60;68.04
73679;BME280;61978;52.742;16.962;2022-07-04T01:53:35;100733.91;;;23.59;68.02
73679;BME280;61978;52.742;16.962;2022-07-04T01:56:02;100724.03;;;23.58;67.95
73679;BME280;61978;52.742;16.962;2022-07-04T01:58:29;100726.77;;;23.58;67.91
73679;BME280;61978;52.742;16.962;2022-07-04T02:00:55;100722.66;;;23.58;67.88
73679;BME280;61978;52.742;16.962;2022-07-04T02:03:42;100722.95;;;23.56;67.83
73679;BME280;61978;52.742;16.962;2022-07-04T02:06:11;100721.58;;;23.56;67.81
73679;BME280;61978;52.742;16.962;2022-07-04T02:08:38;100717.72;;;23.55;67.74
73679;BME280;61978;52.742;16.962;2022-07-04T02:11:23;100707.05;;;23.56;67.72
73679;BME280;61978;52.742;16.962;2022-07-04T02:13:50;100708.13;;;23.55;67.73
73679;BME280;61978;52.742;16.962;2022-07-04T02:16:18;100717.47;;;23.54;67.71
73679;BME280;61978;52.742;16.962;2022-07-04T02:18:46;100721.30;;;23.53;67.68
73679;BME280;61978;52.742;16.962;2022-07-04T02:21:13;100707.59;;;23.53;67.68
73679;BME280;61978;52.742;16.962;2022-07-04T02:23:41;100708.13;;;23.52;67.68
73679;BME280;61978;52.742;16.962;2022-07-04T02:26:10;100711.42;;;23.52;67.64
73679;BME280;61978;52.742;16.962;2022-07-04T02:28:36;100721.02;;;23.52;67.65
73679;BME280;61978;52.742;16.962;2022-07-04T02:31:03;100721.59;;;23.51;67.67
73679;BME280;61978;52.742;16.962;2022-07-04T02:33:30;100720.76;;;23.51;67.70
73679;BME280;61978;52.742;16.962;2022-07-04T02:35:57;100720.76;;;23.51;67.71
73679;BME280;61978;52.742;16.962;2022-07-04T02:38:24;100718.84;;;23.51;67.68
73679;BME280;61978;52.742;16.962;2022-07-04T02:40:51;100711.70;;;23.50;67.68
73679;BME280;61978;52.742;16.962;2022-07-04T02:43:19;100708.14;;;23.50;67.72
73679;BME280;61978;52.742;16.962;2022-07-04T02:45:47;100720.47;;;23.50;67.76
73679;BME280;61978;52.742;16.962;2022-07-04T02:48:15;100717.73;;;23.50;67.74
73679;BME280;61978;52.742;16.962;2022-07-04T02:50:41;100718.27;;;23.49;67.73
73679;BME280;61978;52.742;16.962;2022-07-04T02:53:09;100716.11;;;23.49;67.68
73679;BME280;61978;52.742;16.962;2022-07-04T02:55:38;100720.22;;;23.49;67.62
73679;BME280;61978;52.742;16.962;2022-07-04T02:58:05;100716.91;;;23.47;67.58
73679;BME280;61978;52.742;16.962;2022-07-04T03:00:33;100711.70;;;23.48;67.56
73679;BME280;61978;52.742;16.962;2022-07-04T03:03:00;100712.54;;;23.48;67.52
73679;BME280;61978;52.742;16.962;2022-07-04T03:05:27;100707.85;;;23.46;67.46
73679;BME280;61978;52.742;16.962;2022-07-04T03:07:57;100705.69;;;23.46;67.43
73679;BME280;61978;52.742;16.962;2022-07-04T03:10:23;100700.75;;;23.45;67.38
73679;BME280;61978;52.742;16.962;2022-07-04T03:12:51;100704.31;;;23.46;67.35
73679;BME280;61978;52.742;16.962;2022-07-04T03:15:18;100710.88;;;23.45;67.28
73679;BME280;61978;52.742;16.962;2022-07-04T03:17:45;100713.08;;;23.45;67.22
73679;BME280;61978;52.742;16.962;2022-07-04T03:20:13;100706.77;;;23.45;67.17
73679;BME280;61978;52.742;16.962;2022-07-04T03:22:42;100707.31;;;23.44;67.13
73679;BME280;61978;52.742;16.962;2022-07-04T03:25:09;100709.23;;;23.44;67.10
73679;BME280;61978;52.742;16.962;2022-07-04T03:27:37;100710.59;;;23.44;67.03
73679;BME280;61978;52.742;16.962;2022-07-04T03:30:07;100706.23;;;23.43;67.00
73679;BME280;61978;52.742;16.962;2022-07-04T03:32:35;100705.41;;;23.45;66.97
73679;BME280;61978;52.742;16.962;2022-07-04T03:35:03;100708.14;;;23.45;66.94
73679;BME280;61978;52.742;16.962;2022-07-04T03:37:32;100699.63;;;23.44;66.93
73679;BME280;61978;52.742;16.962;2022-07-04T03:39:59;100699.63;;;23.44;66.93
73679;BME280;61978;52.742;16.962;2022-07-04T03:42:26;100701.00;;;23.44;66.91
73679;BME280;61978;52.742;16.962;2022-07-04T03:44:54;100705.66;;;23.43;66.93
73679;BME280;61978;52.742;16.962;2022-07-04T03:47:22;100699.38;;;23.43;66.94
73679;BME280;61978;52.742;16.962;2022-07-04T03:52:19;100687.05;;;23.43;67.01
73679;BME280;61978;52.742;16.962;2022-07-04T03:54:46;100689.20;;;23.43;67.06
73679;BME280;61978;52.742;16.962;2022-07-04T03:57:13;100685.67;;;23.43;67.06
73679;BME280;61978;52.742;16.962;2022-07-04T03:59:43;100689.78;;;23.43;67.15
73679;BME280;61978;52.742;16.962;2022-07-04T04:02:11;100696.64;;;23.43;67.23
73679;BME280;61978;52.742;16.962;2022-07-04T04:04:41;100690.87;;;23.42;67.33
73679;BME280;61978;52.742;16.962;2022-07-04T04:07:27;100696.89;;;23.44;67.42
73679;BME280;61978;52.742;16.962;2022-07-04T04:09:56;100689.20;;;23.43;67.52
73679;BME280;61978;52.742;16.962;2022-07-04T04:12:23;100687.05;;;23.43;67.57
73679;BME280;61978;52.742;16.962;2022-07-04T04:14:50;100684.30;;;23.43;67.68
73679;BME280;61978;52.742;16.962;2022-07-04T04:17:18;100685.67;;;23.43;67.75
73679;BME280;61978;52.742;16.962;2022-07-04T04:19:46;100681.81;;;23.44;67.83
73679;BME280;61978;52.742;16.962;2022-07-04T04:22:13;100680.19;;;23.43;67.92
73679;BME280;61978;52.742;16.962;2022-07-04T04:24:40;100681.56;;;23.43;68.03
73679;BME280;61978;52.742;16.962;2022-07-04T04:27:08;100673.59;;;23.44;68.10
73679;BME280;61978;52.742;16.962;2022-07-04T04:29:36;100665.36;;;23.44;68.21
73679;BME280;61978;52.742;16.962;2022-07-04T04:32:03;100666.73;;;23.44;68.29
73679;BME280;61978;52.742;16.962;2022-07-04T04:34:31;100660.17;;;23.45;68.39
73679;BME280;61978;52.742;16.962;2022-07-04T04:37:00;100662.91;;;23.45;68.52
73679;BME280;61978;52.742;16.962;2022-07-04T04:39:29;100666.20;;;23.44;68.63
73679;BME280;61978;52.742;16.962;2022-07-04T04:41:56;100663.20;;;23.46;68.72
73679;BME280;61978;52.742;16.962;2022-07-04T04:44:26;100667.02;;;23.45;68.84
73679;BME280;61978;52.742;16.962;2022-07-04T04:46:53;100657.97;;;23.47;69.03
73679;BME280;61978;52.742;16.962;2022-07-04T04:49:20;100647.55;;;23.46;69.20
73679;BME280;61978;52.742;16.962;2022-07-04T04:51:48;100654.68;;;23.47;69.31
73679;BME280;61978;52.742;16.962;2022-07-04T04:54:15;100655.80;;;23.49;69.40
73679;BME280;61978;52.742;16.962;2022-07-04T04:56:42;100649.19;;;23.50;69.43
73679;BME280;61978;52.742;16.962;2022-07-04T04:59:10;100640.42;;;23.53;69.54
73679;BME280;61978;52.742;16.962;2022-07-04T05:01:39;100638.21;;;23.55;69.87
73679;BME280;61978;52.742;16.962;2022-07-04T05:04:07;100628.06;;;23.58;70.24
73679;BME280;61978;52.742;16.962;2022-07-04T05:06:33;100627.27;;;23.60;70.48
73679;BME280;61978;52.742;16.962;2022-07-04T05:09:02;100628.89;;;23.61;70.60
73679;BME280;61978;52.742;16.962;2022-07-04T05:11:28;100620.95;;;23.62;70.69
73679;BME280;61978;52.742;16.962;2022-07-04T05:13:57;100626.43;;;23.62;70.75
73679;BME280;61978;52.742;16.962;2022-07-04T05:16:24;100640.42;;;23.63;70.86
73679;BME280;61978;52.742;16.962;2022-07-04T05:18:54;100662.36;;;23.63;70.90
73679;BME280;61978;52.742;16.962;2022-07-04T05:21:22;100664.56;;;23.63;70.95
73679;BME280;61978;52.742;16.962;2022-07-04T05:23:49;100682.38;;;23.63;71.01
73679;BME280;61978;52.742;16.962;2022-07-04T05:26:18;100699.91;;;23.65;71.03
73679;BME280;61978;52.742;16.962;2022-07-04T05:28:46;100703.49;;;23.63;71.03
73679;BME280;61978;52.742;16.962;2022-07-04T05:31:13;100725.68;;;23.64;70.92
73679;BME280;61978;52.742;16.962;2022-07-04T05:33:41;100740.51;;;23.63;70.60
73679;BME280;61978;52.742;16.962;2022-07-04T05:36:08;100742.42;;;23.62;70.44
73679;BME280;61978;52.742;16.962;2022-07-04T05:38:37;100750.11;;;23.63;70.40
73679;BME280;61978;52.742;16.962;2022-07-04T05:41:06;100747.08;;;23.62;70.25
73679;BME280;61978;52.742;16.962;2022-07-04T05:43:34;100758.59;;;23.64;69.97
73679;BME280;61978;52.742;16.962;2022-07-04T05:46:01;100768.47;;;23.65;69.73
73679;BME280;61978;52.742;16.962;2022-07-04T05:48:30;100764.90;;;23.67;69.51
73679;BME280;61978;52.742;16.962;2022-07-04T05:50:56;100761.36;;;23.69;69.41
73679;BME280;61978;52.742;16.962;2022-07-04T05:53:23;100760.23;;;23.70;69.41
73679;BME280;61978;52.742;16.962;2022-07-04T05:55:51;100756.41;;;23.71;69.55
73679;BME280;61978;52.742;16.962;2022-07-04T05:58:18;100770.41;;;23.72;69.58
73679;BME280;61978;52.742;16.962;2022-07-04T06:00:45;100770.41;;;23.72;69.66
73679;BME280;61978;52.742;16.962;2022-07-04T06:03:12;100775.89;;;23.72;69.80
73679;BME280;61978;52.742;16.962;2022-07-04T06:05:39;100772.86;;;23.73;69.90
73679;BME280;61978;52.742;16.962;2022-07-04T06:08:08;100776.15;;;23.73;70.13
73679;BME280;61978;52.742;16.962;2022-07-04T06:10:36;100785.75;;;23.73;70.34
73679;BME280;61978;52.742;16.962;2022-07-04T06:13:03;100777.80;;;23.74;70.60
73679;BME280;61978;52.742;16.962;2022-07-04T06:15:32;100777.27;;;23.72;70.79
73679;BME280;61978;52.742;16.962;2022-07-04T06:18:00;100780.27;;;23.73;70.69
73679;BME280;61978;52.742;16.962;2022-07-04T06:20:30;100778.89;;;23.73;70.63
73679;BME280;61978;52.742;16.962;2022-07-04T06:22:57;100795.92;;;23.75;70.62
73679;BME280;61978;52.742;16.962;2022-07-04T06:25:25;100801.66;;;23.76;70.52
73679;BME280;61978;52.742;16.962;2022-07-04T06:27:52;100799.20;;;23.79;70.53
73679;BME280;61978;52.742;16.962;2022-07-04T06:30:21;100793.45;;;23.81;70.63
73679;BME280;61978;52.742;16.962;2022-07-04T06:32:53;100794.83;;;23.84;70.61
73679;BME280;61978;52.742;16.962;2022-07-04T06:35:23;100797.28;;;23.85;70.57
73679;BME280;61978;52.742;16.962;2022-07-04T06:38:09;100797.28;;;23.85;70.52
73679;BME280;61978;52.742;16.962;2022-07-04T06:40:37;100796.73;;;23.86;70.47
73679;BME280;61978;52.742;16.962;2022-07-04T06:43:05;100798.94;;;23.86;70.50
73679;BME280;61978;52.742;16.962;2022-07-04T06:45:32;100802.77;;;23.85;70.57
73679;BME280;61978;52.742;16.962;2022-07-04T06:48:04;100812.91;;;23.85;70.43
73679;BME280;61978;52.742;16.962;2022-07-04T06:50:32;100812.36;;;23.85;70.63
73679;BME280;61978;52.742;16.962;2022-07-04T06:53:00;100806.63;;;23.84;70.54
73679;BME280;61978;52.742;16.962;2022-07-04T06:55:27;100800.85;;;23.83;70.28
73679;BME280;61978;52.742;16.962;2022-07-04T06:57:55;100799.19;;;23.85;70.08
73679;BME280;61978;52.742;16.962;2022-07-04T07:00:24;100791.79;;;23.85;69.87
73679;BME280;61978;52.742;16.962;2022-07-04T07:02:51;100795.91;;;23.88;69.68
73679;BME280;61978;52.742;16.962;2022-07-04T07:05:19;100802.50;;;23.89;69.47
73679;BME280;61978;52.742;16.962;2022-07-04T07:07:47;100809.90;;;23.91;69.29
73679;BME280;61978;52.742;16.962;2022-07-04T07:10:13;100810.73;;;23.92;69.19
73679;BME280;61978;52.742;16.962;2022-07-04T07:12:41;100789.89;;;23.93;69.13
73679;BME280;61978;52.742;16.962;2022-07-04T07:15:09;100771.49;;;23.91;69.14
73679;BME280;61978;52.742;16.962;2022-07-04T07:17:38;100783.01;;;23.91;69.24
73679;BME280;61978;52.742;16.962;2022-07-04T07:20:09;100806.91;;;23.90;69.70
73679;BME280;61978;52.742;16.962;2022-07-04T07:22:36;100798.93;;;23.89;69.70
73679;BME280;61978;52.742;16.962;2022-07-04T07:25:04;100780.56;;;23.89;69.78
73679;BME280;61978;52.742;16.962;2022-07-04T07:27:34;100770.95;;;23.87;69.84
73679;BME280;61978;52.742;16.962;2022-07-04T07:30:02;100775.62;;;23.86;69.95
73679;BME280;61978;52.742;16.962;2022-07-04T07:32:31;100794.82;;;23.86;69.97
73679;BME280;61978;52.742;16.962;2022-07-04T07:35:00;100784.67;;;23.87;70.03
73679;BME280;61978;52.742;16.962;2022-07-04T07:37:28;100778.08;;;23.85;70.27
73679;BME280;61978;52.742;16.962;2022-07-04T07:39:57;100771.50;;;23.86;70.55
73679;BME280;61978;52.742;16.962;2022-07-04T07:42:27;100769.30;;;23.88;70.71
73679;BME280;61978;52.742;16.962;2022-07-04T07:44:56;100788.78;;;23.89;70.84
73679;BME280;61978;52.742;16.962;2022-07-04T07:47:24;100780.01;;;23.92;70.83
73679;BME280;61978;52.742;16.962;2022-07-04T07:49:51;100777.27;;;23.92;70.97
73679;BME280;61978;52.742;16.962;2022-07-04T07:52:20;100761.09;;;23.93;71.27
73679;BME280;61978;52.742;16.962;2022-07-04T07:54:49;100761.89;;;23.91;71.66
73679;BME280;61978;52.742;16.962;2022-07-04T07:57:17;100775.61;;;23.91;71.99
73679;BME280;61978;52.742;16.962;2022-07-04T07:59:44;100763.55;;;23.90;72.27
73679;BME280;61978;52.742;16.962;2022-07-04T08:02:15;100756.70;;;23.90;72.44
73679;BME280;61978;52.742;16.962;2022-07-04T08:04:44;100751.47;;;23.88;72.59
73679;BME280;61978;52.742;16.962;2022-07-04T08:07:12;100749.02;;;23.87;72.71
73679;BME280;61978;52.742;16.962;2022-07-04T08:09:40;100759.16;;;23.86;72.88
73679;BME280;61978;52.742;16.962;2022-07-04T08:12:08;100777.53;;;23.86;72.97
73679;BME280;61978;52.742;16.962;2022-07-04T08:14:35;100776.70;;;23.85;73.06
73679;BME280;61978;52.742;16.962;2022-07-04T08:17:04;100776.98;;;23.86;73.08
73679;BME280;61978;52.742;16.962;2022-07-04T08:19:33;100776.45;;;23.87;73.11
73679;BME280;61978;52.742;16.962;2022-07-04T08:22:02;100774.53;;;23.90;73.11
73679;BME280;61978;52.742;16.962;2022-07-04T08:24:29;100764.63;;;23.91;73.17
73679;BME280;61978;52.742;16.962;2022-07-04T08:26:59;100766.00;;;23.94;73.30
73679;BME280;61978;52.742;16.962;2022-07-04T08:29:29;100768.48;;;23.95;73.58
73679;BME280;61978;52.742;16.962;2022-07-04T08:31:58;100766.56;;;23.98;73.87
73679;BME280;61978;52.742;16.962;2022-07-04T08:34:28;100768.47;;;24.00;74.04
73679;BME280;61978;52.742;16.962;2022-07-04T08:36:55;100761.90;;;24.01;74.17
73679;BME280;61978;52.742;16.962;2022-07-04T08:39:23;100765.72;;;24.05;74.23
73679;BME280;61978;52.742;16.962;2022-07-04T08:41:52;100770.12;;;24.06;74.37
73679;BME280;61978;52.742;16.962;2022-07-04T08:44:23;100772.59;;;24.08;74.47
73679;BME280;61978;52.742;16.962;2022-07-04T08:46:53;100783.06;;;24.11;74.55
73679;BME280;61978;52.742;16.962;2022-07-04T08:49:24;100783.31;;;24.12;74.54
73679;BME280;61978;52.742;16.962;2022-07-04T08:52:02;100785.80;;;24.13;74.86
73679;BME280;61978;52.742;16.962;2022-07-04T08:54:32;100788.80;;;24.14;74.92
73679;BME280;61978;52.742;16.962;2022-07-04T08:57:19;100803.09;;;24.16;75.04
73679;BME280;61978;52.742;16.962;2022-07-04T09:00:07;100814.60;;;24.18;75.08
73679;BME280;61978;52.742;16.962;2022-07-04T09:02:34;100813.77;;;24.20;75.06
73679;BME280;61978;52.742;16.962;2022-07-04T09:05:06;100826.14;;;24.23;74.96
73679;BME280;61978;52.742;16.962;2022-07-04T09:07:35;100819.28;;;24.23;74.91
73679;BME280;61978;52.742;16.962;2022-07-04T09:10:03;100823.39;;;24.25;74.90
73679;BME280;61978;52.742;16.962;2022-07-04T09:12:30;100826.13;;;24.25;74.89
73679;BME280;61978;52.742;16.962;2022-07-04T09:14:57;100841.23;;;24.28;74.85
73679;BME280;61978;52.742;16.962;2022-07-04T09:17:28;100831.08;;;24.28;74.72
73679;BME280;61978;52.742;16.962;2022-07-04T09:20:17;100843.68;;;24.29;74.62
73679;BME280;61978;52.742;16.962;2022-07-04T09:22:44;100848.91;;;24.31;74.56
73679;BME280;61978;52.742;16.962;2022-07-04T09:25:13;100849.99;;;24.32;74.44
73679;BME280;61978;52.742;16.962;2022-07-04T09:27:46;100845.61;;;24.34;74.36
73679;BME280;61978;52.742;16.962;2022-07-04T09:30:25;100846.45;;;24.35;74.27
73679;BME280;61978;52.742;16.962;2022-07-04T09:32:57;100849.19;;;24.35;74.16
73679;BME280;61978;52.742;16.962;2022-07-04T09:35:28;100856.88;;;24.38;74.10
73679;BME280;61978;52.742;16.962;2022-07-04T09:37:58;100845.89;;;24.38;74.10
73679;BME280;61978;52.742;16.962;2022-07-04T09:40:30;100860.16;;;24.40;74.33
73679;BME280;61978;52.742;16.962;2022-07-04T09:43:00;100853.30;;;24.40;74.19
73679;BME280;61978;52.742;16.962;2022-07-04T09:45:27;100855.50;;;24.40;73.97
73679;BME280;61978;52.742;16.962;2022-07-04T09:47:57;100850.83;;;24.41;73.81
73679;BME280;61978;52.742;16.962;2022-07-04T09:50:26;100850.83;;;24.41;73.81
73679;BME280;61978;52.742;16.962;2022-07-04T09:52:58;100854.95;;;24.43;73.77
73679;BME280;61978;52.742;16.962;2022-07-04T09:55:30;100848.91;;;24.44;74.03
73679;BME280;61978;52.742;16.962;2022-07-04T09:58:00;100846.16;;;24.46;74.16
73679;BME280;61978;52.742;16.962;2022-07-04T10:00:29;100853.84;;;24.47;74.21
73679;BME280;61978;52.742;16.962;2022-07-04T10:02:58;100855.22;;;24.47;74.21
73679;BME280;61978;52.742;16.962;2022-07-04T10:05:27;100854.94;;;24.46;74.20
73679;BME280;61978;52.742;16.962;2022-07-04T10:07:55;100853.56;;;24.46;74.04
73679;BME280;61978;52.742;16.962;2022-07-04T10:10:36;100859.88;;;24.46;73.97
73679;BME280;61978;52.742;16.962;2022-07-04T10:12:56;100854.94;;;24.46;73.68
73679;BME280;61978;52.742;16.962;2022-07-04T10:15:23;100856.02;;;24.47;73.44
73679;BME280;61978;52.742;16.962;2022-07-04T10:17:51;100859.88;;;24.49;73.26
73679;BME280;61978;52.742;16.962;2022-07-04T10:20:19;100864.00;;;24.49;73.16
73679;BME280;61978;52.742;16.962;2022-07-04T10:22:48;100859.33;;;24.49;73.04
73679;BME280;61978;52.742;16.962;2022-07-04T10:25:15;100855.76;;;24.49;72.88
73679;BME280;61978;52.742;16.962;2022-07-04T10:27:44;100860.97;;;24.48;72.66
73679;BME280;61978;52.742;16.962;2022-07-04T10:30:15;100856.59;;;24.47;72.57
73679;BME280;61978;52.742;16.962;2022-07-04T10:32:44;100852.19;;;24.46;72.32
73679;BME280;61978;52.742;16.962;2022-07-04T10:35:13;100847.79;;;24.45;71.94
73679;BME280;61978;52.742;16.962;2022-07-04T10:38:01;100854.94;;;24.46;71.48
73679;BME280;61978;52.742;16.962;2022-07-04T10:40:42;100856.31;;;24.46;70.84
73679;BME280;61978;52.742;16.962;2022-07-04T10:46:33;100842.30;;;24.45;70.10
73679;BME280;61978;52.742;16.962;2022-07-04T10:51:46;100839.83;;;24.46;69.54
73679;BME280;61978;52.742;16.962;2022-07-04T10:54:17;100845.86;;;24.48;69.39
73679;BME280;61978;52.742;16.962;2022-07-04T10:56:49;100842.03;;;24.49;69.38
73679;BME280;61978;52.742;16.962;2022-07-04T10:59:22;100838.19;;;24.50;69.27
73679;BME280;61978;52.742;16.962;2022-07-04T11:04:57;100841.19;;;24.51;69.19
73679;BME280;61978;52.742;16.962;2022-07-04T11:18:03;100840.37;;;24.58;70.12
73679;BME280;61978;52.742;16.962;2022-07-04T11:20:35;100843.36;;;24.59;70.31
73679;BME280;61978;52.742;16.962;2022-07-04T11:23:15;100851.89;;;24.60;70.33
73679;BME280;61978;52.742;16.962;2022-07-04T11:25:44;100845.02;;;24.60;70.30
73679;BME280;61978;52.742;16.962;2022-07-04T11:28:22;100839.53;;;24.60;70.16
73679;BME280;61978;52.742;16.962;2022-07-04T11:30:52;100844.47;;;24.63;70.02
73679;BME280;61978;52.742;16.962;2022-07-04T11:33:22;100833.77;;;24.64;69.92
73679;BME280;61978;52.742;16.962;2022-07-04T11:36:10;100839.26;;;24.64;69.81
73679;BME280;61978;52.742;16.962;2022-07-04T11:39:03;100837.05;;;24.63;69.79
73679;BME280;61978;52.742;16.962;2022-07-04T11:41:32;100823.87;;;24.63;69.86
73679;BME280;61978;52.742;16.962;2022-07-04T11:44:22;100821.13;;;24.63;69.95
73679;BME280;61978;52.742;16.962;2022-07-04T11:47:10;100828.27;;;24.64;70.12
73679;BME280;61978;52.742;16.962;2022-07-04T11:49:54;100825.78;;;24.65;70.43
73679;BME280;61978;52.742;16.962;2022-07-04T11:52:13;100822.22;;;24.67;70.50
73679;BME280;61978;52.742;16.962;2022-07-04T11:54:43;100814.80;;;24.70;70.59
73679;BME280;61978;52.742;16.962;2022-07-04T12:00:00;100812.04;;;24.72;70.91
73679;BME280;61978;52.742;16.962;2022-07-04T12:02:24;100815.62;;;24.73;71.03
73679;BME280;61978;52.742;16.962;2022-07-04T12:04:53;100818.06;;;24.74;71.10
73679;BME280;61978;52.742;16.962;2022-07-04T12:07:23;100801.03;;;24.77;71.28
73679;BME280;61978;52.742;16.962;2022-07-04T12:09:50;100812.00;;;24.80;71.13
73679;BME280;61978;52.742;16.962;2022-07-04T12:12:20;100797.75;;;24.80;71.10
73679;BME280;61978;52.742;16.962;2022-07-04T12:15:05;100805.73;;;24.82;71.08
73679;BME280;61978;52.742;16.962;2022-07-04T12:17:39;100808.19;;;24.83;71.14
73679;BME280;61978;52.742;16.962;2022-07-04T12:20:17;100794.73;;;24.84;71.07
73679;BME280;61978;52.742;16.962;2022-07-04T12:22:49;100791.69;;;24.86;70.87
73679;BME280;61978;52.742;16.962;2022-07-04T12:25:24;100791.12;;;24.89;70.65
73679;BME280;61978;52.742;16.962;2022-07-04T12:28:06;100787.56;;;24.91;70.61
73679;BME280;61978;52.742;16.962;2022-07-04T12:30:35;100791.39;;;24.93;70.55
73679;BME280;61978;52.742;16.962;2022-07-04T12:33:09;100783.68;;;24.95;70.90
73679;BME280;61978;52.742;16.962;2022-07-04T12:35:51;100782.04;;;24.96;71.77
73679;BME280;61978;52.742;16.962;2022-07-04T12:38:22;100785.33;;;24.96;72.46
73679;BME280;61978;52.742;16.962;2022-07-04T12:41:09;100785.06;;;24.92;71.82
73679;BME280;61978;52.742;16.962;2022-07-04T12:46:25;100792.77;;;24.93;71.13
73679;BME280;61978;52.742;16.962;2022-07-04T12:48:46;100784.23;;;24.92;71.15
73679;BME280;61978;52.742;16.962;2022-07-04T12:51:18;100780.95;;;24.92;71.29
73679;BME280;61978;52.742;16.962;2022-07-04T12:53:46;100778.48;;;24.93;71.34
73679;BME280;61978;52.742;16.962;2022-07-04T12:59:07;100783.95;;;24.96;71.40
73679;BME280;61978;52.742;16.962;2022-07-04T13:01:36;100778.74;;;24.97;71.26
73679;BME280;61978;52.742;16.962;2022-07-04T13:04:06;100778.99;;;24.98;71.20
73679;BME280;61978;52.742;16.962;2022-07-04T13:06:33;100776.24;;;24.98;70.93
73679;BME280;61978;52.742;16.962;2022-07-04T13:09:04;100784.23;;;24.97;70.58
73679;BME280;61978;52.742;16.962;2022-07-04T13:11:33;100782.04;;;24.96;70.41
73679;BME280;61978;52.742;16.962;2022-07-04T13:14:19;100781.21;;;24.96;70.20
73679;BME280;61978;52.742;16.962;2022-07-04T13:16:47;100784.50;;;24.95;70.03
73679;BME280;61978;52.742;16.962;2022-07-04T13:19:14;100784.50;;;24.95;70.14
73679;BME280;61978;52.742;16.962;2022-07-04T13:21:44;100785.34;;;24.93;69.76